Nearby METAR Reports

 

EGNR - Hawarden (aut), United Kingdom
Distance from station: ESE 33mi, 53km
Updated: 01/03/2024 17:50
Few Clouds
Few Clouds
 Wind from SSE
Wind: SSE 7 mph , 11 km/h
Temperature: 5°C
Wind Chill: 2°C
Dew Point: 2°C
Humidity: 81%
Barometer: 989 hPa
Clouds: Few Clouds
Visibility: 6 miles , 10 km
Cloud details: Few Clouds 701 m
2024/03/01 17:50 EGNR 011750Z 15006KT 9999 FEW023CB 05/02 Q0989
EGOV - Valley Raf, United Kingdom
Distance from station: W 33mi, 53km
Updated: 01/03/2024 17:50
Few Clouds
Few Clouds
 Wind from NE
Wind: NE 7 mph , 11 km/h
Temperature: 4°C
Wind Chill: 1°C
Dew Point: 3°C
Humidity: 93%
Barometer: 987 hPa
Clouds: Few Clouds
Visibility: 6 miles , 10 km
Cloud details: Few Clouds 1890 m
2024/03/01 17:50 EGOV 011750Z AUTO 05006KT 9999 // FEW062/// 04/03 Q0987
 
EGGP - Liverpool Airpor, United Kingdom
Distance from station: E 37mi, 59km
Updated: 01/03/2024 17:50
Few Clouds
Few Clouds
 Wind from SSE
Wind: SSE 10 mph , 17 km/h
Temperature: 5°C
Wind Chill: 2°C
Dew Point: 2°C
Humidity: 81%
Barometer: 988 hPa
Clouds: Few Clouds
Visibility: 6 miles , 10 km
Cloud details: Few Clouds 1067 m
2024/03/01 17:50 EGGP 011750Z 15009KT 9999 FEW035 05/02 Q0988
EGNH - Blackpool Airpor, United Kingdom
Distance from station: NE 44mi, 72km
Updated: 01/03/2024 17:50
Nearby showers, Few clouds
Nearby showers, Few clouds
 Wind from ESE
Wind: ESE 6 mph , 9 km/h
Temperature: 4°C
Wind Chill: 2°C
Dew Point: 3°C
Humidity: 93%
Barometer: 988 hPa
Summary: Nearby Showers
Clouds: Few Clouds
Visibility: 6 miles , 10 km
Cloud details: Few Clouds 1463 m
2024/03/01 17:50 EGNH 011750Z 11005KT 9999 VCSH FEW048 04/03 Q0988
 
EGNO - Wharton, United Kingdom
Distance from station: NE 47mi, 76km
Updated: 01/03/2024 16:50
Nearby showers, Partly cloudy
Nearby showers, Partly cloudy
 Wind from ENE
Wind: ENE 5 mph , 7 km/h
Temperature: 4°C
Wind Chill: 2°C
Dew Point: 3°C
Humidity: 93%
Barometer: 987 hPa
Summary: Nearby Showers
Clouds: Partly cloudy
Visibility: 6 miles , 10 km
Cloud details: Few Clouds 732 m
Partly cloudy 1158 m
2024/03/01 16:50 EGNO 011650Z 06004KT 9999 VCSH FEW024 SCT038 04/03 Q0987
EGOS - Shawbury Raf, United Kingdom
Distance from station: SE 56mi, 89km
Updated: 01/03/2024 17:50
Mostly cloudy
Mostly cloudy
 Wind from SSE
Wind: SSE 6 mph , 9 km/h
Temperature: 4°C
Wind Chill: 2°C
Dew Point: 1°C
Humidity: 81%
Barometer: 988 hPa
Clouds: Mostly cloudy
Visibility: 6 miles , 10 km
Cloud details: Mostly cloudy 1646 m
Mostly cloudy 2164 m
2024/03/01 17:50 EGOS 011750Z AUTO 16005KT 9999 BKN054/// BKN071/// 04/01 Q0988
 
EGCC - Manchester Intl, United Kingdom
Distance from station: E 61mi, 98km
Updated: 01/03/2024 17:50
Partly cloudy
Partly cloudy
 Wind from S
Wind: S 5 mph , 7 km/h
Temperature: 5°C
Wind Chill: 3°C
Dew Point: 1°C
Humidity: 76%
Barometer: 989 hPa
Clouds: Partly cloudy
Visibility: 6 miles , 10 km
Cloud details: Partly cloudy 975 m
2024/03/01 17:50 EGCC 011750Z 19004KT 150V220 9999 SCT032TCU 05/01 Q0989
EGNS - Isle Of Man/Rona, United Kingdom
Distance from station: NW 66mi, 107km
Updated: 01/03/2024 17:50
Light rain, Overcast
Light rain, Overcast
 Wind from E
Wind: E 18 mph , 30 km/h
Temperature: 4°C
Wind Chill: -1°C
Dew Point: 3°C
Humidity: 93%
Barometer: 988 hPa
Summary: Light rain
Clouds: Overcast
Visibility: 6 miles , 10 km
Cloud details: Few Clouds 335 m
Mostly cloudy 488 m
Overcast 610 m
2024/03/01 17:50 EGNS 011750Z 08016KT 9999 -RA FEW011 BKN016 OVC020 04/03 Q0988
 
EGNM - Leeds And Bradfo, United Kingdom
Distance from station: ENE 95mi, 153km
Updated: 01/03/2024 17:50
Few Clouds
Few Clouds
 Wind from S
Wind: S 5 mph , 7 km/h
Temperature: 3°C
Wind Chill: 1°C
Dew Point: 2°C
Humidity: 93%
Barometer: 988 hPa
Clouds: Few Clouds
Visibility: 6 miles , 10 km
Cloud details: Few Clouds 396 m
Few Clouds 549 m
2024/03/01 17:50 EGNM 011750Z 17004KT 9999 FEW013CB FEW018 03/02 Q0988
EGBB - Birmingham Airpo, United Kingdom
Distance from station: ESE 100mi, 161km
Updated: 01/03/2024 17:50
Few Clouds
Few Clouds
 Wind from S
Wind: S 8 mph , 13 km/h
Temperature: 3°C
Wind Chill: -1°C
Dew Point: 1°C
Humidity: 87%
Barometer: 989 hPa
Clouds: Few Clouds
Visibility: 6 miles , 10 km
Cloud details: Few Clouds 610 m
2024/03/01 17:50 EGBB 011750Z 19007KT 9999 FEW020CB 03/01 Q0989 RESHRA